sensor_id;sensor_type;location;lat;lon;timestamp;P1;durP1;ratioP1;P2;durP2;ratioP2
13941;SDS011;7043;51.630;7.254;2023-06-22T00:00:50;11.15;;;10.05;;
13941;SDS011;7043;51.630;7.254;2023-06-22T00:03:20;15.20;;;11.00;;
13941;SDS011;7043;51.630;7.254;2023-06-22T00:05:46;12.10;;;10.82;;
13941;SDS011;7043;51.630;7.254;2023-06-22T00:08:13;12.57;;;11.43;;
13941;SDS011;7043;51.630;7.254;2023-06-22T00:10:39;11.55;;;10.55;;
13941;SDS011;7043;51.630;7.254;2023-06-22T00:13:06;12.38;;;11.18;;
13941;SDS011;7043;51.630;7.254;2023-06-22T00:15:33;12.88;;;11.45;;
13941;SDS011;7043;51.630;7.254;2023-06-22T00:17:59;13.75;;;11.30;;
13941;SDS011;7043;51.630;7.254;2023-06-22T00:20:28;11.57;;;10.05;;
13941;SDS011;7043;51.630;7.254;2023-06-22T00:22:55;12.95;;;11.57;;
13941;SDS011;7043;51.630;7.254;2023-06-22T00:25:21;13.40;;;12.10;;
13941;SDS011;7043;51.630;7.254;2023-06-22T00:27:47;13.50;;;12.27;;
13941;SDS011;7043;51.630;7.254;2023-06-22T00:30:13;13.82;;;12.52;;
13941;SDS011;7043;51.630;7.254;2023-06-22T00:32:39;14.27;;;12.93;;
13941;SDS011;7043;51.630;7.254;2023-06-22T00:35:05;13.18;;;11.88;;
13941;SDS011;7043;51.630;7.254;2023-06-22T00:37:31;13.15;;;11.93;;
13941;SDS011;7043;51.630;7.254;2023-06-22T00:39:57;13.02;;;11.75;;
13941;SDS011;7043;51.630;7.254;2023-06-22T00:42:23;13.30;;;11.90;;
13941;SDS011;7043;51.630;7.254;2023-06-22T00:44:49;13.90;;;12.70;;
13941;SDS011;7043;51.630;7.254;2023-06-22T00:47:16;12.95;;;11.68;;
13941;SDS011;7043;51.630;7.254;2023-06-22T00:49:42;13.05;;;11.85;;
13941;SDS011;7043;51.630;7.254;2023-06-22T00:52:08;13.18;;;11.88;;
13941;SDS011;7043;51.630;7.254;2023-06-22T00:54:39;14.90;;;12.82;;
13941;SDS011;7043;51.630;7.254;2023-06-22T00:57:13;13.57;;;12.38;;
13941;SDS011;7043;51.630;7.254;2023-06-22T00:59:41;14.60;;;13.30;;
13941;SDS011;7043;51.630;7.254;2023-06-22T01:02:07;15.15;;;13.45;;
13941;SDS011;7043;51.630;7.254;2023-06-22T01:04:35;14.27;;;12.98;;
13941;SDS011;7043;51.630;7.254;2023-06-22T01:07:16;16.00;;;14.40;;
13941;SDS011;7043;51.630;7.254;2023-06-22T01:09:57;14.82;;;13.48;;
13941;SDS011;7043;51.630;7.254;2023-06-22T01:12:24;14.20;;;12.90;;
13941;SDS011;7043;51.630;7.254;2023-06-22T01:15:04;16.38;;;14.95;;
13941;SDS011;7043;51.630;7.254;2023-06-22T01:17:37;15.93;;;14.40;;
13941;SDS011;7043;51.630;7.254;2023-06-22T01:20:04;16.27;;;14.70;;
13941;SDS011;7043;51.630;7.254;2023-06-22T01:22:30;16.40;;;14.68;;
13941;SDS011;7043;51.630;7.254;2023-06-22T01:25:09;16.45;;;14.85;;
13941;SDS011;7043;51.630;7.254;2023-06-22T01:30:21;15.70;;;14.27;;
13941;SDS011;7043;51.630;7.254;2023-06-22T01:32:47;16.30;;;14.98;;
13941;SDS011;7043;51.630;7.254;2023-06-22T01:35:14;16.88;;;15.38;;
13941;SDS011;7043;51.630;7.254;2023-06-22T01:37:40;17.27;;;15.77;;
13941;SDS011;7043;51.630;7.254;2023-06-22T01:40:07;17.15;;;15.50;;
13941;SDS011;7043;51.630;7.254;2023-06-22T01:42:34;18.08;;;16.48;;
13941;SDS011;7043;51.630;7.254;2023-06-22T01:45:00;18.20;;;16.60;;
13941;SDS011;7043;51.630;7.254;2023-06-22T01:47:27;18.20;;;16.50;;
13941;SDS011;7043;51.630;7.254;2023-06-22T01:49:53;19.08;;;17.25;;
13941;SDS011;7043;51.630;7.254;2023-06-22T01:52:19;19.00;;;17.30;;
13941;SDS011;7043;51.630;7.254;2023-06-22T01:54:46;19.65;;;17.70;;
13941;SDS011;7043;51.630;7.254;2023-06-22T01:57:13;19.65;;;17.75;;
13941;SDS011;7043;51.630;7.254;2023-06-22T01:59:42;21.02;;;19.08;;
13941;SDS011;7043;51.630;7.254;2023-06-22T02:02:10;19.80;;;17.92;;
13941;SDS011;7043;51.630;7.254;2023-06-22T02:04:47;20.85;;;18.92;;
13941;SDS011;7043;51.630;7.254;2023-06-22T02:07:15;20.65;;;18.65;;
13941;SDS011;7043;51.630;7.254;2023-06-22T02:09:47;21.05;;;19.13;;
13941;SDS011;7043;51.630;7.254;2023-06-22T02:12:14;20.10;;;18.30;;
13941;SDS011;7043;51.630;7.254;2023-06-22T02:14:44;21.55;;;19.52;;
13941;SDS011;7043;51.630;7.254;2023-06-22T02:17:12;21.33;;;19.27;;
13941;SDS011;7043;51.630;7.254;2023-06-22T02:19:40;20.45;;;18.48;;
13941;SDS011;7043;51.630;7.254;2023-06-22T02:22:07;21.25;;;19.35;;
13941;SDS011;7043;51.630;7.254;2023-06-22T02:24:33;21.80;;;19.75;;
13941;SDS011;7043;51.630;7.254;2023-06-22T02:26:59;20.23;;;18.38;;
13941;SDS011;7043;51.630;7.254;2023-06-22T02:29:25;21.00;;;19.02;;
13941;SDS011;7043;51.630;7.254;2023-06-22T02:31:54;22.20;;;19.98;;
13941;SDS011;7043;51.630;7.254;2023-06-22T02:34:21;21.77;;;19.77;;
13941;SDS011;7043;51.630;7.254;2023-06-22T02:36:47;22.38;;;20.17;;
13941;SDS011;7043;51.630;7.254;2023-06-22T02:39:20;21.55;;;19.63;;
13941;SDS011;7043;51.630;7.254;2023-06-22T02:41:47;23.30;;;21.30;;
13941;SDS011;7043;51.630;7.254;2023-06-22T02:44:13;22.63;;;20.63;;
13941;SDS011;7043;51.630;7.254;2023-06-22T02:46:39;21.55;;;19.67;;
13941;SDS011;7043;51.630;7.254;2023-06-22T02:49:05;23.65;;;21.52;;
13941;SDS011;7043;51.630;7.254;2023-06-22T02:51:33;24.50;;;22.30;;
13941;SDS011;7043;51.630;7.254;2023-06-22T02:53:59;21.55;;;19.65;;
13941;SDS011;7043;51.630;7.254;2023-06-22T02:56:25;23.52;;;21.35;;
13941;SDS011;7043;51.630;7.254;2023-06-22T02:58:51;22.23;;;20.17;;
13941;SDS011;7043;51.630;7.254;2023-06-22T03:01:17;24.00;;;21.92;;
13941;SDS011;7043;51.630;7.254;2023-06-22T03:03:49;24.95;;;22.63;;
13941;SDS011;7043;51.630;7.254;2023-06-22T03:06:15;24.92;;;22.60;;
13941;SDS011;7043;51.630;7.254;2023-06-22T03:08:41;24.50;;;22.17;;
13941;SDS011;7043;51.630;7.254;2023-06-22T03:11:07;25.55;;;22.98;;
13941;SDS011;7043;51.630;7.254;2023-06-22T03:13:33;25.95;;;23.75;;
13941;SDS011;7043;51.630;7.254;2023-06-22T03:15:59;25.25;;;22.90;;
13941;SDS011;7043;51.630;7.254;2023-06-22T03:18:25;24.85;;;22.65;;
13941;SDS011;7043;51.630;7.254;2023-06-22T03:20:51;25.70;;;23.45;;
13941;SDS011;7043;51.630;7.254;2023-06-22T03:23:17;26.27;;;23.77;;
13941;SDS011;7043;51.630;7.254;2023-06-22T03:25:43;25.33;;;23.05;;
13941;SDS011;7043;51.630;7.254;2023-06-22T03:28:09;27.30;;;24.77;;
13941;SDS011;7043;51.630;7.254;2023-06-22T03:30:36;25.50;;;23.23;;
13941;SDS011;7043;51.630;7.254;2023-06-22T03:33:02;25.80;;;23.50;;
13941;SDS011;7043;51.630;7.254;2023-06-22T03:35:28;26.45;;;24.08;;
13941;SDS011;7043;51.630;7.254;2023-06-22T03:37:54;26.30;;;23.88;;
13941;SDS011;7043;51.630;7.254;2023-06-22T03:40:20;26.48;;;24.17;;
13941;SDS011;7043;51.630;7.254;2023-06-22T03:42:46;26.35;;;23.92;;
13941;SDS011;7043;51.630;7.254;2023-06-22T03:45:12;28.60;;;26.00;;
13941;SDS011;7043;51.630;7.254;2023-06-22T03:47:38;27.02;;;24.52;;
13941;SDS011;7043;51.630;7.254;2023-06-22T03:50:04;26.40;;;23.95;;
13941;SDS011;7043;51.630;7.254;2023-06-22T03:52:31;28.15;;;25.55;;
13941;SDS011;7043;51.630;7.254;2023-06-22T03:54:57;26.80;;;24.40;;
13941;SDS011;7043;51.630;7.254;2023-06-22T03:57:23;25.93;;;23.60;;
13941;SDS011;7043;51.630;7.254;2023-06-22T03:59:49;28.13;;;25.33;;
13941;SDS011;7043;51.630;7.254;2023-06-22T04:02:15;27.45;;;25.05;;
13941;SDS011;7043;51.630;7.254;2023-06-22T04:04:41;26.23;;;23.65;;
13941;SDS011;7043;51.630;7.254;2023-06-22T04:07:07;27.83;;;25.13;;
13941;SDS011;7043;51.630;7.254;2023-06-22T04:09:33;23.92;;;21.63;;
13941;SDS011;7043;51.630;7.254;2023-06-22T04:12:00;27.30;;;24.77;;
13941;SDS011;7043;51.630;7.254;2023-06-22T04:14:26;26.60;;;24.20;;
13941;SDS011;7043;51.630;7.254;2023-06-22T04:16:52;28.42;;;25.70;;
13941;SDS011;7043;51.630;7.254;2023-06-22T04:19:18;27.40;;;25.00;;
13941;SDS011;7043;51.630;7.254;2023-06-22T04:21:44;26.67;;;24.40;;
13941;SDS011;7043;51.630;7.254;2023-06-22T04:24:13;26.23;;;23.83;;
13941;SDS011;7043;51.630;7.254;2023-06-22T04:26:39;27.52;;;25.02;;
13941;SDS011;7043;51.630;7.254;2023-06-22T04:29:07;27.27;;;24.80;;
13941;SDS011;7043;51.630;7.254;2023-06-22T04:31:36;27.38;;;24.98;;
13941;SDS011;7043;51.630;7.254;2023-06-22T04:34:03;27.45;;;24.75;;
13941;SDS011;7043;51.630;7.254;2023-06-22T04:36:35;26.30;;;23.80;;
13941;SDS011;7043;51.630;7.254;2023-06-22T04:39:03;26.27;;;23.88;;
13941;SDS011;7043;51.630;7.254;2023-06-22T04:41:29;26.92;;;24.45;;
13941;SDS011;7043;51.630;7.254;2023-06-22T04:43:55;26.80;;;24.33;;
13941;SDS011;7043;51.630;7.254;2023-06-22T04:46:24;25.97;;;23.63;;
13941;SDS011;7043;51.630;7.254;2023-06-22T04:48:50;25.25;;;23.10;;
13941;SDS011;7043;51.630;7.254;2023-06-22T04:51:16;26.25;;;23.95;;
13941;SDS011;7043;51.630;7.254;2023-06-22T04:53:46;25.75;;;23.45;;
13941;SDS011;7043;51.630;7.254;2023-06-22T04:56:12;26.65;;;24.23;;
13941;SDS011;7043;51.630;7.254;2023-06-22T04:58:40;25.45;;;23.13;;
13941;SDS011;7043;51.630;7.254;2023-06-22T05:01:06;24.95;;;22.55;;
13941;SDS011;7043;51.630;7.254;2023-06-22T05:03:33;25.33;;;22.92;;
13941;SDS011;7043;51.630;7.254;2023-06-22T05:06:01;26.30;;;23.60;;
13941;SDS011;7043;51.630;7.254;2023-06-22T05:08:27;26.13;;;23.52;;
13941;SDS011;7043;51.630;7.254;2023-06-22T05:10:53;26.08;;;23.67;;
13941;SDS011;7043;51.630;7.254;2023-06-22T05:13:19;25.67;;;23.38;;
13941;SDS011;7043;51.630;7.254;2023-06-22T05:15:46;26.65;;;24.13;;
13941;SDS011;7043;51.630;7.254;2023-06-22T05:18:12;26.98;;;24.48;;
13941;SDS011;7043;51.630;7.254;2023-06-22T05:20:38;26.77;;;24.33;;
13941;SDS011;7043;51.630;7.254;2023-06-22T05:23:04;26.73;;;24.25;;
13941;SDS011;7043;51.630;7.254;2023-06-22T05:25:30;27.63;;;25.15;;
13941;SDS011;7043;51.630;7.254;2023-06-22T05:27:57;26.38;;;23.75;;
13941;SDS011;7043;51.630;7.254;2023-06-22T05:30:23;24.60;;;22.40;;
13941;SDS011;7043;51.630;7.254;2023-06-22T05:32:49;25.60;;;23.27;;
13941;SDS011;7043;51.630;7.254;2023-06-22T05:35:17;26.13;;;23.73;;
13941;SDS011;7043;51.630;7.254;2023-06-22T05:37:43;26.55;;;24.05;;
13941;SDS011;7043;51.630;7.254;2023-06-22T05:40:09;26.38;;;24.17;;
13941;SDS011;7043;51.630;7.254;2023-06-22T05:42:36;25.00;;;22.60;;
13941;SDS011;7043;51.630;7.254;2023-06-22T05:45:02;26.58;;;24.17;;
13941;SDS011;7043;51.630;7.254;2023-06-22T05:47:28;28.08;;;25.42;;
13941;SDS011;7043;51.630;7.254;2023-06-22T05:49:54;25.60;;;23.40;;
13941;SDS011;7043;51.630;7.254;2023-06-22T05:52:20;28.17;;;25.65;;
13941;SDS011;7043;51.630;7.254;2023-06-22T05:54:46;27.02;;;24.48;;
13941;SDS011;7043;51.630;7.254;2023-06-22T05:57:12;27.45;;;24.92;;
13941;SDS011;7043;51.630;7.254;2023-06-22T05:59:38;27.45;;;25.05;;
13941;SDS011;7043;51.630;7.254;2023-06-22T06:02:04;26.33;;;23.85;;
13941;SDS011;7043;51.630;7.254;2023-06-22T06:04:30;25.98;;;23.48;;
13941;SDS011;7043;51.630;7.254;2023-06-22T06:06:56;28.35;;;25.45;;
13941;SDS011;7043;51.630;7.254;2023-06-22T06:09:22;26.88;;;24.13;;
13941;SDS011;7043;51.630;7.254;2023-06-22T06:11:48;25.55;;;23.15;;
13941;SDS011;7043;51.630;7.254;2023-06-22T06:14:14;26.35;;;24.05;;
13941;SDS011;7043;51.630;7.254;2023-06-22T06:16:42;25.33;;;22.95;;
13941;SDS011;7043;51.630;7.254;2023-06-22T06:19:08;26.02;;;23.65;;
13941;SDS011;7043;51.630;7.254;2023-06-22T06:21:34;25.15;;;22.70;;
13941;SDS011;7043;51.630;7.254;2023-06-22T06:24:00;24.65;;;22.35;;
13941;SDS011;7043;51.630;7.254;2023-06-22T06:26:26;25.20;;;22.80;;
13941;SDS011;7043;51.630;7.254;2023-06-22T06:28:59;24.67;;;22.40;;
13941;SDS011;7043;51.630;7.254;2023-06-22T06:31:25;23.92;;;21.75;;
13941;SDS011;7043;51.630;7.254;2023-06-22T06:33:53;25.05;;;22.60;;
13941;SDS011;7043;51.630;7.254;2023-06-22T06:36:19;25.20;;;22.75;;
13941;SDS011;7043;51.630;7.254;2023-06-22T06:38:45;22.88;;;20.77;;
13941;SDS011;7043;51.630;7.254;2023-06-22T06:41:13;23.00;;;21.00;;
13941;SDS011;7043;51.630;7.254;2023-06-22T06:43:39;23.73;;;21.48;;
13941;SDS011;7043;51.630;7.254;2023-06-22T06:46:05;25.20;;;22.75;;
13941;SDS011;7043;51.630;7.254;2023-06-22T06:48:31;25.52;;;23.02;;
13941;SDS011;7043;51.630;7.254;2023-06-22T06:50:57;26.10;;;23.52;;
13941;SDS011;7043;51.630;7.254;2023-06-22T06:53:23;25.42;;;22.92;;
13941;SDS011;7043;51.630;7.254;2023-06-22T06:55:48;26.58;;;23.88;;
13941;SDS011;7043;51.630;7.254;2023-06-22T06:58:14;24.90;;;22.50;;
13941;SDS011;7043;51.630;7.254;2023-06-22T07:00:41;26.30;;;23.90;;
13941;SDS011;7043;51.630;7.254;2023-06-22T07:03:08;25.67;;;23.27;;
13941;SDS011;7043;51.630;7.254;2023-06-22T07:05:34;25.48;;;23.00;;
13941;SDS011;7043;51.630;7.254;2023-06-22T07:08:01;25.58;;;23.10;;
13941;SDS011;7043;51.630;7.254;2023-06-22T07:10:27;24.05;;;21.73;;
13941;SDS011;7043;51.630;7.254;2023-06-22T07:12:52;25.30;;;22.83;;
13941;SDS011;7043;51.630;7.254;2023-06-22T07:15:18;24.83;;;22.50;;
13941;SDS011;7043;51.630;7.254;2023-06-22T07:17:44;22.88;;;20.77;;
13941;SDS011;7043;51.630;7.254;2023-06-22T07:20:10;24.88;;;22.45;;
13941;SDS011;7043;51.630;7.254;2023-06-22T07:22:37;26.25;;;23.83;;
13941;SDS011;7043;51.630;7.254;2023-06-22T07:25:03;24.52;;;22.13;;
13941;SDS011;7043;51.630;7.254;2023-06-22T07:27:34;24.65;;;22.40;;
13941;SDS011;7043;51.630;7.254;2023-06-22T07:30:01;24.55;;;22.27;;
13941;SDS011;7043;51.630;7.254;2023-06-22T07:32:27;24.60;;;22.23;;
13941;SDS011;7043;51.630;7.254;2023-06-22T07:34:53;25.90;;;23.40;;
13941;SDS011;7043;51.630;7.254;2023-06-22T07:37:19;25.08;;;22.75;;
13941;SDS011;7043;51.630;7.254;2023-06-22T07:39:45;24.98;;;22.67;;
13941;SDS011;7043;51.630;7.254;2023-06-22T07:42:11;25.90;;;23.20;;
13941;SDS011;7043;51.630;7.254;2023-06-22T07:44:37;25.85;;;23.20;;
13941;SDS011;7043;51.630;7.254;2023-06-22T07:47:03;25.38;;;23.05;;
13941;SDS011;7043;51.630;7.254;2023-06-22T07:49:29;26.10;;;23.70;;
13941;SDS011;7043;51.630;7.254;2023-06-22T07:51:55;25.38;;;23.17;;
13941;SDS011;7043;51.630;7.254;2023-06-22T07:54:21;25.65;;;23.35;;
13941;SDS011;7043;51.630;7.254;2023-06-22T07:56:48;26.20;;;23.80;;
13941;SDS011;7043;51.630;7.254;2023-06-22T07:59:14;25.00;;;22.90;;
13941;SDS011;7043;51.630;7.254;2023-06-22T08:01:40;26.90;;;24.45;;
13941;SDS011;7043;51.630;7.254;2023-06-22T08:04:06;25.90;;;23.50;;
13941;SDS011;7043;51.630;7.254;2023-06-22T08:06:32;25.08;;;22.77;;
13941;SDS011;7043;51.630;7.254;2023-06-22T08:08:58;25.45;;;23.15;;
13941;SDS011;7043;51.630;7.254;2023-06-22T08:11:24;26.08;;;23.63;;
13941;SDS011;7043;51.630;7.254;2023-06-22T08:13:50;26.60;;;24.10;;
13941;SDS011;7043;51.630;7.254;2023-06-22T08:16:16;26.10;;;23.80;;
13941;SDS011;7043;51.630;7.254;2023-06-22T08:18:43;25.52;;;23.23;;
13941;SDS011;7043;51.630;7.254;2023-06-22T08:21:09;26.77;;;24.25;;
13941;SDS011;7043;51.630;7.254;2023-06-22T08:23:36;26.63;;;24.13;;
13941;SDS011;7043;51.630;7.254;2023-06-22T08:26:02;27.20;;;24.67;;
13941;SDS011;7043;51.630;7.254;2023-06-22T08:28:28;26.60;;;24.10;;
13941;SDS011;7043;51.630;7.254;2023-06-22T08:30:54;27.38;;;24.85;;
13941;SDS011;7043;51.630;7.254;2023-06-22T08:33:20;26.77;;;24.38;;
13941;SDS011;7043;51.630;7.254;2023-06-22T08:35:53;27.48;;;25.00;;
13941;SDS011;7043;51.630;7.254;2023-06-22T08:38:19;27.45;;;25.00;;
13941;SDS011;7043;51.630;7.254;2023-06-22T08:40:45;27.38;;;24.77;;
13941;SDS011;7043;51.630;7.254;2023-06-22T08:43:11;26.33;;;23.83;;
13941;SDS011;7043;51.630;7.254;2023-06-22T08:45:37;27.67;;;25.27;;
13941;SDS011;7043;51.630;7.254;2023-06-22T08:48:03;28.10;;;25.70;;
13941;SDS011;7043;51.630;7.254;2023-06-22T08:50:29;26.88;;;24.38;;
13941;SDS011;7043;51.630;7.254;2023-06-22T08:52:55;28.67;;;26.17;;
13941;SDS011;7043;51.630;7.254;2023-06-22T08:55:21;27.08;;;24.65;;
13941;SDS011;7043;51.630;7.254;2023-06-22T08:57:47;26.55;;;24.15;;
13941;SDS011;7043;51.630;7.254;2023-06-22T09:00:13;25.83;;;23.52;;
13941;SDS011;7043;51.630;7.254;2023-06-22T09:02:43;26.75;;;24.38;;
13941;SDS011;7043;51.630;7.254;2023-06-22T09:05:09;25.75;;;23.48;;
13941;SDS011;7043;51.630;7.254;2023-06-22T09:07:35;25.25;;;23.08;;
13941;SDS011;7043;51.630;7.254;2023-06-22T09:10:01;25.92;;;23.63;;
13941;SDS011;7043;51.630;7.254;2023-06-22T09:12:29;23.23;;;21.23;;
13941;SDS011;7043;51.630;7.254;2023-06-22T09:14:55;22.83;;;20.92;;
13941;SDS011;7043;51.630;7.254;2023-06-22T09:17:22;24.00;;;21.98;;
13941;SDS011;7043;51.630;7.254;2023-06-22T09:19:48;25.10;;;22.95;;
13941;SDS011;7043;51.630;7.254;2023-06-22T09:22:14;25.90;;;23.52;;
13941;SDS011;7043;51.630;7.254;2023-06-22T09:24:40;26.10;;;23.70;;
13941;SDS011;7043;51.630;7.254;2023-06-22T09:27:06;24.13;;;21.98;;
13941;SDS011;7043;51.630;7.254;2023-06-22T09:29:32;23.30;;;21.30;;
13941;SDS011;7043;51.630;7.254;2023-06-22T09:31:58;22.75;;;20.75;;
13941;SDS011;7043;51.630;7.254;2023-06-22T09:34:24;23.80;;;21.73;;
13941;SDS011;7043;51.630;7.254;2023-06-22T09:36:50;23.48;;;21.42;;
13941;SDS011;7043;51.630;7.254;2023-06-22T09:39:20;22.73;;;20.83;;
13941;SDS011;7043;51.630;7.254;2023-06-22T09:41:46;23.30;;;21.23;;
13941;SDS011;7043;51.630;7.254;2023-06-22T09:44:12;23.95;;;21.67;;
13941;SDS011;7043;51.630;7.254;2023-06-22T09:46:37;23.50;;;21.40;;
13941;SDS011;7043;51.630;7.254;2023-06-22T09:49:03;24.10;;;22.00;;
13941;SDS011;7043;51.630;7.254;2023-06-22T09:51:29;23.95;;;21.85;;
13941;SDS011;7043;51.630;7.254;2023-06-22T09:53:56;22.35;;;20.40;;
13941;SDS011;7043;51.630;7.254;2023-06-22T09:56:23;21.17;;;19.38;;
13941;SDS011;7043;51.630;7.254;2023-06-22T09:58:49;22.65;;;20.52;;
13941;SDS011;7043;51.630;7.254;2023-06-22T10:01:17;21.23;;;19.30;;
13941;SDS011;7043;51.630;7.254;2023-06-22T10:03:43;21.13;;;19.33;;
13941;SDS011;7043;51.630;7.254;2023-06-22T10:06:09;20.88;;;19.08;;
13941;SDS011;7043;51.630;7.254;2023-06-22T10:08:35;21.70;;;19.70;;
13941;SDS011;7043;51.630;7.254;2023-06-22T10:11:02;23.10;;;21.00;;
13941;SDS011;7043;51.630;7.254;2023-06-22T10:13:28;22.95;;;20.70;;
13941;SDS011;7043;51.630;7.254;2023-06-22T10:15:54;21.55;;;19.75;;
13941;SDS011;7043;51.630;7.254;2023-06-22T10:18:21;20.30;;;18.60;;
13941;SDS011;7043;51.630;7.254;2023-06-22T10:20:47;19.08;;;17.33;;
13941;SDS011;7043;51.630;7.254;2023-06-22T10:23:16;21.40;;;19.27;;
13941;SDS011;7043;51.630;7.254;2023-06-22T10:25:42;20.52;;;18.73;;
13941;SDS011;7043;51.630;7.254;2023-06-22T10:28:08;21.17;;;19.38;;
13941;SDS011;7043;51.630;7.254;2023-06-22T10:30:34;20.60;;;18.80;;
13941;SDS011;7043;51.630;7.254;2023-06-22T10:33:00;20.58;;;18.48;;
13941;SDS011;7043;51.630;7.254;2023-06-22T10:35:26;20.60;;;18.90;;
13941;SDS011;7043;51.630;7.254;2023-06-22T10:37:52;20.73;;;18.83;;
13941;SDS011;7043;51.630;7.254;2023-06-22T10:40:19;19.77;;;18.17;;
13941;SDS011;7043;51.630;7.254;2023-06-22T10:42:47;19.38;;;17.60;;
13941;SDS011;7043;51.630;7.254;2023-06-22T10:45:15;20.83;;;18.98;;
13941;SDS011;7043;51.630;7.254;2023-06-22T10:47:41;21.30;;;19.40;;
13941;SDS011;7043;51.630;7.254;2023-06-22T10:50:07;20.75;;;18.90;;
13941;SDS011;7043;51.630;7.254;2023-06-22T10:52:33;20.65;;;18.80;;
13941;SDS011;7043;51.630;7.254;2023-06-22T10:54:59;22.08;;;20.17;;
13941;SDS011;7043;51.630;7.254;2023-06-22T10:57:25;21.48;;;19.52;;
13941;SDS011;7043;51.630;7.254;2023-06-22T10:59:54;23.70;;;21.58;;
13941;SDS011;7043;51.630;7.254;2023-06-22T11:02:20;22.75;;;20.63;;
13941;SDS011;7043;51.630;7.254;2023-06-22T11:04:46;22.38;;;20.45;;
13941;SDS011;7043;51.630;7.254;2023-06-22T11:07:12;24.55;;;22.35;;
13941;SDS011;7043;51.630;7.254;2023-06-22T11:09:38;23.42;;;21.23;;
13941;SDS011;7043;51.630;7.254;2023-06-22T11:12:05;24.10;;;21.95;;
13941;SDS011;7043;51.630;7.254;2023-06-22T11:14:31;22.75;;;20.63;;
13941;SDS011;7043;51.630;7.254;2023-06-22T11:16:58;24.25;;;22.20;;
13941;SDS011;7043;51.630;7.254;2023-06-22T11:19:24;22.63;;;20.63;;
13941;SDS011;7043;51.630;7.254;2023-06-22T11:21:50;23.75;;;21.65;;
13941;SDS011;7043;51.630;7.254;2023-06-22T11:24:19;24.05;;;21.83;;
13941;SDS011;7043;51.630;7.254;2023-06-22T11:26:45;24.63;;;22.42;;
13941;SDS011;7043;51.630;7.254;2023-06-22T11:29:11;25.67;;;23.17;;
13941;SDS011;7043;51.630;7.254;2023-06-22T11:31:37;23.60;;;21.50;;
13941;SDS011;7043;51.630;7.254;2023-06-22T11:34:04;24.90;;;22.70;;
13941;SDS011;7043;51.630;7.254;2023-06-22T11:36:29;26.15;;;23.85;;
13941;SDS011;7043;51.630;7.254;2023-06-22T11:38:58;25.15;;;22.95;;
13941;SDS011;7043;51.630;7.254;2023-06-22T11:41:24;26.20;;;23.85;;
13941;SDS011;7043;51.630;7.254;2023-06-22T11:43:50;24.38;;;22.27;;
13941;SDS011;7043;51.630;7.254;2023-06-22T11:46:16;26.65;;;24.35;;
13941;SDS011;7043;51.630;7.254;2023-06-22T11:48:42;27.95;;;25.27;;
13941;SDS011;7043;51.630;7.254;2023-06-22T11:51:08;28.63;;;25.75;;
13941;SDS011;7043;51.630;7.254;2023-06-22T11:53:34;28.00;;;25.23;;
13941;SDS011;7043;51.630;7.254;2023-06-22T11:56:00;27.98;;;25.25;;
13941;SDS011;7043;51.630;7.254;2023-06-22T11:58:26;28.10;;;25.50;;
13941;SDS011;7043;51.630;7.254;2023-06-22T12:00:53;29.38;;;26.73;;
13941;SDS011;7043;51.630;7.254;2023-06-22T12:03:19;28.10;;;25.60;;
13941;SDS011;7043;51.630;7.254;2023-06-22T12:05:49;29.88;;;27.02;;
13941;SDS011;7043;51.630;7.254;2023-06-22T12:08:15;29.55;;;27.02;;
13941;SDS011;7043;51.630;7.254;2023-06-22T12:10:41;31.58;;;28.63;;
13941;SDS011;7043;51.630;7.254;2023-06-22T12:13:07;32.55;;;29.48;;
13941;SDS011;7043;51.630;7.254;2023-06-22T12:15:33;31.05;;;28.20;;
13941;SDS011;7043;51.630;7.254;2023-06-22T12:17:59;33.65;;;30.50;;
13941;SDS011;7043;51.630;7.254;2023-06-22T12:20:26;35.17;;;32.05;;
13941;SDS011;7043;51.630;7.254;2023-06-22T12:22:52;35.08;;;31.88;;
13941;SDS011;7043;51.630;7.254;2023-06-22T12:25:20;37.60;;;34.13;;
13941;SDS011;7043;51.630;7.254;2023-06-22T12:27:46;38.30;;;34.40;;
13941;SDS011;7043;51.630;7.254;2023-06-22T12:30:12;38.40;;;34.58;;
13941;SDS011;7043;51.630;7.254;2023-06-22T12:32:38;40.70;;;36.83;;
13941;SDS011;7043;51.630;7.254;2023-06-22T12:35:04;40.45;;;36.88;;
13941;SDS011;7043;51.630;7.254;2023-06-22T12:37:32;38.17;;;34.60;;
13941;SDS011;7043;51.630;7.254;2023-06-22T12:39:58;39.53;;;36.00;;
13941;SDS011;7043;51.630;7.254;2023-06-22T12:42:24;40.75;;;36.95;;
13941;SDS011;7043;51.630;7.254;2023-06-22T12:44:53;42.10;;;38.20;;
13941;SDS011;7043;51.630;7.254;2023-06-22T12:47:18;40.50;;;36.80;;
13941;SDS011;7043;51.630;7.254;2023-06-22T12:49:45;41.42;;;37.53;;
13941;SDS011;7043;51.630;7.254;2023-06-22T12:52:11;43.47;;;39.38;;
13941;SDS011;7043;51.630;7.254;2023-06-22T12:54:37;43.92;;;40.03;;
13941;SDS011;7043;51.630;7.254;2023-06-22T12:57:03;45.10;;;40.95;;
13941;SDS011;7043;51.630;7.254;2023-06-22T12:59:29;45.53;;;41.15;;
13941;SDS011;7043;51.630;7.254;2023-06-22T13:01:55;46.17;;;41.78;;
13941;SDS011;7043;51.630;7.254;2023-06-22T13:04:21;47.08;;;42.47;;
13941;SDS011;7043;51.630;7.254;2023-06-22T13:06:47;47.05;;;42.60;;
13941;SDS011;7043;51.630;7.254;2023-06-22T13:09:14;46.08;;;41.72;;
13941;SDS011;7043;51.630;7.254;2023-06-22T13:11:40;45.90;;;41.58;;
13941;SDS011;7043;51.630;7.254;2023-06-22T13:14:06;44.75;;;40.83;;
13941;SDS011;7043;51.630;7.254;2023-06-22T13:16:32;44.65;;;40.80;;
13941;SDS011;7043;51.630;7.254;2023-06-22T13:18:58;45.40;;;41.20;;
13941;SDS011;7043;51.630;7.254;2023-06-22T13:21:24;46.30;;;41.83;;
13941;SDS011;7043;51.630;7.254;2023-06-22T13:23:50;43.42;;;39.55;;
13941;SDS011;7043;51.630;7.254;2023-06-22T13:26:16;45.78;;;41.67;;
13941;SDS011;7043;51.630;7.254;2023-06-22T13:28:42;47.78;;;43.35;;
13941;SDS011;7043;51.630;7.254;2023-06-22T13:31:08;47.47;;;43.17;;
13941;SDS011;7043;51.630;7.254;2023-06-22T13:33:34;49.67;;;44.85;;
13941;SDS011;7043;51.630;7.254;2023-06-22T13:36:00;48.75;;;44.33;;
13941;SDS011;7043;51.630;7.254;2023-06-22T13:38:28;49.83;;;45.22;;
13941;SDS011;7043;51.630;7.254;2023-06-22T13:40:55;47.25;;;42.75;;
13941;SDS011;7043;51.630;7.254;2023-06-22T13:43:23;48.78;;;44.47;;
13941;SDS011;7043;51.630;7.254;2023-06-22T13:45:49;49.78;;;44.95;;
13941;SDS011;7043;51.630;7.254;2023-06-22T13:48:18;48.75;;;44.17;;
13941;SDS011;7043;51.630;7.254;2023-06-22T13:50:44;47.65;;;43.40;;
13941;SDS011;7043;51.630;7.254;2023-06-22T13:53:10;46.20;;;42.00;;
13941;SDS011;7043;51.630;7.254;2023-06-22T13:55:36;45.05;;;41.00;;
13941;SDS011;7043;51.630;7.254;2023-06-22T13:58:02;43.00;;;39.10;;
13941;SDS011;7043;51.630;7.254;2023-06-22T14:00:28;39.47;;;35.97;;
13941;SDS011;7043;51.630;7.254;2023-06-22T14:02:54;39.08;;;35.45;;
13941;SDS011;7043;51.630;7.254;2023-06-22T14:05:20;36.47;;;33.08;;
13941;SDS011;7043;51.630;7.254;2023-06-22T14:07:46;37.08;;;33.75;;
13941;SDS011;7043;51.630;7.254;2023-06-22T14:10:12;37.53;;;34.13;;
13941;SDS011;7043;51.630;7.254;2023-06-22T14:12:38;32.50;;;29.70;;
13941;SDS011;7043;51.630;7.254;2023-06-22T14:15:04;34.45;;;31.35;;
13941;SDS011;7043;51.630;7.254;2023-06-22T14:17:30;35.70;;;32.40;;
13941;SDS011;7043;51.630;7.254;2023-06-22T14:19:56;38.20;;;34.70;;
13941;SDS011;7043;51.630;7.254;2023-06-22T14:22:22;39.15;;;35.58;;
13941;SDS011;7043;51.630;7.254;2023-06-22T14:24:48;43.42;;;39.40;;
13941;SDS011;7043;51.630;7.254;2023-06-22T14:27:15;41.58;;;37.72;;
13941;SDS011;7043;51.630;7.254;2023-06-22T14:29:41;44.05;;;40.03;;
13941;SDS011;7043;51.630;7.254;2023-06-22T14:32:07;44.55;;;40.25;;